createdAt,value
2022-08-16T00:01:24.726Z,5.93
2022-08-16T00:03:53.420Z,5.93
2022-08-16T00:06:21.668Z,5.93
2022-08-16T00:08:49.977Z,5.57
2022-08-16T00:11:17.860Z,5.40
2022-08-16T00:13:53.573Z,6.75
2022-08-16T00:17:05.388Z,5.80
2022-08-16T00:19:22.471Z,5.45
2022-08-16T00:21:52.216Z,7.35
2022-08-16T00:24:31.150Z,5.82
2022-08-16T00:27:01.605Z,7.38
2022-08-16T00:29:30.049Z,6.95
2022-08-16T00:32:01.372Z,6.32
2022-08-16T00:34:43.869Z,6.00
2022-08-16T00:37:57.535Z,7.18
2022-08-16T00:40:34.206Z,6.03
2022-08-16T00:43:12.187Z,7.63
2022-08-16T00:46:00.171Z,9.32
2022-08-16T00:48:30.996Z,8.07
2022-08-16T00:51:00.751Z,6.25
2022-08-16T00:53:30.698Z,6.80
2022-08-16T00:56:05.541Z,8.40
2022-08-16T00:58:36.056Z,7.00
2022-08-16T01:01:08.369Z,7.18
2022-08-16T01:03:41.491Z,7.82
2022-08-16T01:06:39.884Z,7.30
2022-08-16T01:09:00.053Z,7.35
2022-08-16T01:11:29.368Z,6.82
2022-08-16T01:14:13.634Z,8.57
2022-08-16T01:16:43.618Z,5.97
2022-08-16T01:19:24.240Z,7.22
2022-08-16T01:22:49.697Z,7.78
2022-08-16T01:25:09.905Z,5.85
2022-08-16T01:27:44.802Z,5.95
2022-08-16T01:30:26.520Z,5.78
2022-08-16T01:33:02.766Z,6.00
2022-08-16T01:35:52.537Z,5.50
2022-08-16T01:38:25.926Z,6.53
2022-08-16T01:41:05.746Z,5.95
2022-08-16T01:43:35.875Z,5.35
2022-08-16T01:46:37.684Z,5.82
2022-08-16T01:48:56.878Z,7.55
2022-08-16T01:51:27.330Z,5.50
2022-08-16T01:53:55.953Z,5.57
2022-08-16T01:56:25.409Z,7.95
2022-08-16T01:58:55.192Z,6.15
2022-08-16T02:01:23.120Z,6.28
2022-08-16T02:03:53.644Z,6.07
2022-08-16T02:06:34.209Z,5.85
2022-08-16T02:09:05.182Z,6.55
2022-08-16T02:11:47.511Z,6.25
2022-08-16T02:14:18.522Z,5.85
2022-08-16T02:16:49.680Z,5.88
2022-08-16T02:19:18.483Z,5.47
2022-08-16T02:22:09.322Z,5.95
2022-08-16T02:24:40.942Z,5.68
2022-08-16T02:27:10.051Z,6.65
2022-08-16T02:29:38.242Z,7.35
2022-08-16T02:32:51.289Z,5.05
2022-08-16T02:34:58.581Z,5.75
2022-08-16T02:37:51.278Z,5.50
2022-08-16T02:40:16.893Z,6.32
2022-08-16T02:42:49.817Z,6.57
2022-08-16T02:45:20.438Z,5.47
2022-08-16T02:48:00.716Z,6.88
2022-08-16T02:51:05.894Z,6.32
2022-08-16T02:53:18.050Z,7.88
2022-08-16T02:55:46.166Z,6.80
2022-08-16T02:58:18.789Z,6.53
2022-08-16T03:00:50.075Z,5.75
2022-08-16T03:03:18.553Z,6.90
2022-08-16T03:05:52.167Z,5.88
2022-08-16T03:08:50.762Z,6.63
2022-08-16T03:11:16.911Z,5.85
2022-08-16T03:13:51.645Z,6.30
2022-08-16T03:16:37.718Z,6.85
2022-08-16T03:19:09.909Z,6.97
2022-08-16T03:21:38.780Z,7.20
2022-08-16T03:24:29.107Z,7.00
2022-08-16T03:26:58.123Z,7.80
2022-08-16T03:29:30.311Z,6.68
2022-08-16T03:31:59.656Z,6.47
2022-08-16T03:34:30.168Z,7.32
2022-08-16T03:36:58.022Z,6.72
2022-08-16T03:39:25.538Z,6.40
2022-08-16T03:41:59.562Z,6.70
2022-08-16T03:44:44.326Z,6.95
2022-08-16T03:47:19.028Z,7.13
2022-08-16T03:49:51.366Z,7.22
2022-08-16T03:52:23.628Z,7.60
2022-08-16T03:54:57.713Z,8.13
2022-08-16T03:57:31.973Z,7.35
2022-08-16T04:00:35.313Z,6.68
2022-08-16T04:03:07.153Z,6.90
2022-08-16T04:05:44.272Z,7.03
2022-08-16T04:08:24.010Z,7.13
2022-08-16T04:10:53.948Z,7.95
2022-08-16T04:13:59.115Z,7.30
2022-08-16T04:16:27.228Z,7.45
2022-08-16T04:21:29.803Z,7.50
2022-08-16T04:23:57.340Z,7.05
2022-08-16T04:26:24.604Z,7.05
2022-08-16T04:29:14.753Z,7.60
2022-08-16T04:31:47.222Z,8.02
2022-08-16T04:34:29.348Z,7.10
2022-08-16T04:36:58.963Z,6.80
2022-08-16T04:39:45.006Z,7.50
2022-08-16T04:42:26.240Z,7.80
2022-08-16T04:44:56.231Z,6.93
2022-08-16T04:47:31.609Z,7.38
2022-08-16T04:50:01.386Z,6.90
2022-08-16T04:52:34.969Z,7.38
2022-08-16T04:55:31.792Z,7.15
2022-08-16T04:58:44.378Z,7.40
2022-08-16T05:00:55.021Z,7.53
2022-08-16T05:03:23.549Z,7.40
2022-08-16T05:05:59.007Z,7.75
2022-08-16T05:08:30.748Z,7.47
2022-08-16T05:11:03.582Z,7.15
2022-08-16T05:13:39.855Z,7.05
2022-08-16T05:16:20.261Z,8.13
2022-08-16T05:18:51.267Z,8.18
2022-08-16T05:21:20.770Z,9.13
2022-08-16T05:23:51.574Z,7.20
2022-08-16T05:26:20.479Z,10.63
2022-08-16T05:28:55.587Z,8.65
2022-08-16T05:31:29.939Z,7.78
2022-08-16T05:36:34.123Z,8.10
2022-08-16T05:39:09.713Z,7.40
2022-08-16T05:41:45.592Z,7.05
2022-08-16T05:44:22.405Z,6.68
2022-08-16T05:46:51.859Z,7.93
2022-08-16T05:49:22.215Z,7.95
2022-08-16T05:51:50.383Z,6.40
2022-08-16T05:54:25.241Z,9.27
2022-08-16T05:56:54.409Z,8.45
2022-08-16T05:59:24.166Z,9.45
2022-08-16T06:01:52.089Z,10.75
2022-08-16T06:04:35.003Z,10.68
2022-08-16T06:07:08.218Z,8.70
2022-08-16T06:09:43.309Z,8.43
2022-08-16T06:12:27.349Z,18.75
2022-08-16T06:15:04.360Z,17.92
2022-08-16T06:17:43.118Z,15.27
2022-08-16T06:20:15.107Z,14.88
2022-08-16T06:22:47.707Z,16.42
2022-08-16T06:25:35.367Z,15.07
2022-08-16T06:28:08.450Z,13.60
2022-08-16T06:30:44.098Z,15.48
2022-08-16T06:33:22.293Z,14.68
2022-08-16T06:35:55.253Z,10.70
2022-08-16T06:38:33.802Z,11.68
2022-08-16T06:41:06.696Z,11.18
2022-08-16T06:43:41.797Z,10.25
2022-08-16T06:46:22.557Z,10.15
2022-08-16T06:48:58.838Z,10.68
2022-08-16T06:51:45.807Z,9.25
2022-08-16T06:54:14.027Z,13.00
2022-08-16T06:56:42.633Z,7.90
2022-08-16T06:59:12.091Z,10.02
2022-08-16T07:01:43.056Z,11.20
2022-08-16T07:04:12.398Z,8.68
2022-08-16T07:06:42.987Z,8.07
2022-08-16T07:09:15.759Z,8.98
2022-08-16T07:11:46.018Z,12.45
2022-08-16T07:14:25.382Z,9.98
2022-08-16T07:16:58.235Z,8.93
2022-08-16T07:19:33.638Z,7.78
2022-08-16T07:22:37.051Z,15.68
2022-08-16T07:25:04.952Z,7.85
2022-08-16T07:27:33.928Z,9.38
2022-08-16T07:30:39.945Z,7.22
2022-08-16T07:32:56.139Z,8.98
2022-08-16T07:35:24.237Z,7.15
2022-08-16T07:37:52.331Z,7.47
2022-08-16T07:40:24.889Z,6.82
2022-08-16T07:42:59.413Z,8.57
2022-08-16T07:45:26.892Z,7.05
2022-08-16T07:50:57.693Z,7.55
2022-08-16T07:53:15.835Z,5.88
2022-08-16T07:55:48.010Z,6.57
2022-08-16T07:58:18.348Z,6.70
2022-08-16T08:01:01.883Z,6.50
2022-08-16T08:03:35.994Z,8.82
2022-08-16T08:06:06.945Z,8.30
2022-08-16T08:08:50.996Z,7.03
2022-08-16T08:11:23.855Z,6.25
2022-08-16T08:13:53.656Z,5.82
2022-08-16T08:16:21.699Z,5.93
2022-08-16T08:19:01.111Z,5.93
2022-08-16T08:22:00.926Z,6.47
2022-08-16T08:24:19.415Z,5.60
2022-08-16T08:26:50.350Z,5.25
2022-08-16T08:29:23.106Z,5.82
2022-08-16T08:32:59.724Z,5.88
2022-08-16T08:34:53.164Z,5.53
2022-08-16T08:37:22.554Z,5.07
2022-08-16T08:39:54.815Z,5.18
2022-08-16T08:42:26.795Z,7.93
2022-08-16T08:44:55.439Z,5.68
2022-08-16T08:47:23.423Z,6.25
2022-08-16T08:49:55.964Z,4.78
2022-08-16T08:52:34.801Z,5.60
2022-08-16T08:55:10.975Z,7.00
2022-08-16T08:57:44.836Z,5.00
2022-08-16T09:00:15.451Z,4.40
2022-08-16T09:02:45.624Z,5.03
2022-08-16T09:05:21.022Z,5.13
2022-08-16T09:08:01.604Z,6.15
2022-08-16T09:10:33.846Z,5.38
2022-08-16T09:13:08.081Z,4.22
2022-08-16T09:15:38.805Z,4.10
2022-08-16T09:18:25.347Z,4.75
2022-08-16T09:20:59.320Z,4.22
2022-08-16T09:23:28.980Z,4.68
2022-08-16T09:25:56.269Z,4.68
2022-08-16T09:29:14.065Z,4.55
2022-08-16T09:31:13.014Z,4.88
2022-08-16T09:33:42.083Z,5.05
2022-08-16T09:36:12.326Z,5.75
2022-08-16T09:39:00.021Z,6.70
2022-08-16T09:41:28.141Z,7.88
2022-08-16T09:43:59.405Z,7.63
2022-08-16T09:46:45.007Z,7.13
2022-08-16T09:49:19.778Z,7.93
2022-08-16T09:51:53.424Z,8.50
2022-08-16T09:54:23.025Z,8.82
2022-08-16T09:56:53.236Z,10.68
2022-08-16T09:59:25.234Z,7.90
2022-08-16T10:01:54.565Z,8.75
2022-08-16T10:04:31.539Z,8.38
2022-08-16T10:07:03.190Z,7.82
2022-08-16T10:09:53.955Z,8.15
2022-08-16T10:12:55.825Z,9.18
2022-08-16T10:15:30.266Z,9.45
2022-08-16T10:18:00.039Z,7.20
2022-08-16T10:20:32.494Z,7.90
2022-08-16T10:23:07.206Z,8.93
2022-08-16T10:27:16.840Z,9.43
2022-08-16T10:28:29.357Z,8.70
2022-08-16T10:30:59.423Z,8.07
2022-08-16T10:33:29.619Z,7.43
2022-08-16T10:36:03.102Z,7.32
2022-08-16T10:38:32.983Z,8.68
2022-08-16T10:41:01.561Z,8.68
2022-08-16T10:43:31.157Z,7.90
2022-08-16T10:46:00.835Z,8.88
2022-08-16T10:48:29.544Z,8.73
2022-08-16T10:51:00.773Z,8.73
2022-08-16T10:53:33.155Z,7.35
2022-08-16T10:56:52.678Z,8.45
2022-08-16T10:59:29.538Z,7.22
2022-08-16T11:02:21.793Z,6.97
2022-08-16T11:13:21.116Z,7.63
2022-08-16T11:15:55.442Z,6.80
2022-08-16T11:18:48.807Z,7.57
2022-08-16T11:21:28.551Z,6.07
2022-08-16T11:23:58.824Z,7.60
2022-08-16T11:26:27.174Z,7.15
2022-08-16T11:29:13.163Z,6.97
2022-08-16T11:31:42.468Z,7.03
2022-08-16T11:34:10.145Z,6.68
2022-08-16T11:36:37.459Z,7.38
2022-08-16T11:39:05.313Z,6.55
2022-08-16T11:41:38.438Z,8.30
2022-08-16T11:44:11.647Z,6.07
2022-08-16T11:46:47.637Z,6.20
2022-08-16T11:49:16.359Z,6.20
2022-08-16T11:51:44.498Z,5.47
2022-08-16T11:54:21.160Z,5.82
2022-08-16T11:56:56.531Z,6.10
2022-08-16T11:59:28.534Z,5.85
2022-08-16T12:01:59.985Z,6.63
2022-08-16T12:04:32.532Z,7.05
2022-08-16T12:07:02.216Z,7.10
2022-08-16T12:09:31.659Z,5.78
2022-08-16T12:12:02.925Z,6.78
2022-08-16T12:14:35.537Z,7.40
2022-08-16T12:17:05.982Z,6.55
2022-08-16T12:19:36.137Z,6.18
2022-08-16T12:22:19.165Z,6.70
2022-08-16T12:24:52.334Z,6.47
2022-08-16T12:27:23.210Z,6.25
2022-08-16T12:29:52.539Z,6.25
2022-08-16T12:32:37.475Z,6.60
2022-08-16T12:35:12.179Z,6.63
2022-08-16T12:37:41.726Z,6.75
2022-08-16T12:40:23.940Z,6.13
2022-08-16T12:42:58.492Z,6.18
2022-08-16T12:45:29.839Z,6.45
2022-08-16T12:48:32.857Z,6.03
2022-08-16T12:51:02.271Z,6.28
2022-08-16T12:53:31.942Z,6.03
2022-08-16T12:56:00.510Z,6.60
2022-08-16T12:58:48.301Z,6.80
2022-08-16T13:01:17.267Z,6.25
2022-08-16T13:03:45.272Z,5.95
2022-08-16T13:06:14.750Z,7.78
2022-08-16T13:08:47.769Z,7.97
2022-08-16T13:11:18.171Z,7.38
2022-08-16T13:13:45.608Z,6.70
2022-08-16T13:16:20.422Z,6.85
2022-08-16T13:18:52.993Z,7.03
2022-08-16T13:21:23.671Z,5.65
2022-08-16T13:23:53.469Z,5.82
2022-08-16T13:26:24.267Z,5.90
2022-08-16T13:28:54.406Z,6.30
2022-08-16T13:31:22.070Z,5.65
2022-08-16T13:33:51.955Z,5.90
2022-08-16T13:36:38.927Z,6.80
2022-08-16T13:39:09.891Z,5.55
2022-08-16T13:41:37.653Z,6.05
2022-08-16T13:44:09.458Z,6.30
2022-08-16T13:46:37.452Z,6.05
2022-08-16T13:49:06.873Z,5.82
2022-08-16T13:51:34.218Z,5.28
2022-08-16T13:54:03.908Z,5.82
2022-08-16T13:56:37.629Z,4.60
2022-08-16T13:59:16.432Z,5.70
2022-08-16T14:01:55.725Z,5.47
2022-08-16T14:04:29.363Z,5.80
2022-08-16T14:06:58.187Z,5.78
2022-08-16T14:09:27.001Z,5.20
2022-08-16T14:11:55.173Z,5.13
2022-08-16T14:14:28.769Z,5.97
2022-08-16T14:19:27.950Z,4.78
2022-08-16T14:22:15.158Z,5.32
2022-08-16T14:24:50.155Z,4.70
2022-08-16T14:27:21.145Z,4.85
2022-08-16T14:29:50.767Z,4.80
2022-08-16T14:32:27.108Z,4.75
2022-08-16T14:35:04.065Z,4.68
2022-08-16T14:37:31.990Z,4.55
2022-08-16T14:40:00.057Z,4.65
2022-08-16T14:42:29.086Z,4.47
2022-08-16T14:44:56.980Z,4.55
2022-08-16T14:47:25.233Z,4.40
2022-08-16T14:50:02.106Z,4.32
2022-08-16T14:52:53.963Z,4.60
2022-08-16T14:55:17.354Z,4.55
2022-08-16T14:57:44.766Z,3.80
2022-08-16T15:00:14.393Z,4.13
2022-08-16T15:02:50.166Z,4.07
2022-08-16T15:05:23.945Z,4.93
2022-08-16T15:07:52.587Z,3.78
2022-08-16T15:10:24.286Z,4.28
2022-08-16T15:12:58.346Z,6.30
2022-08-16T15:15:28.543Z,5.90
2022-08-16T15:17:57.224Z,4.57
2022-08-16T15:20:29.170Z,9.07
2022-08-16T15:22:59.729Z,5.00
2022-08-16T15:25:35.121Z,7.97
2022-08-16T15:28:05.475Z,5.82
2022-08-16T15:30:57.982Z,10.68
2022-08-16T15:33:27.277Z,9.93
2022-08-16T15:35:58.214Z,8.23
2022-08-16T15:38:54.744Z,11.85
2022-08-16T15:41:42.799Z,8.52
2022-08-16T15:44:22.189Z,8.82
2022-08-16T15:46:54.700Z,15.13
2022-08-16T15:49:37.498Z,16.15
2022-08-16T15:52:20.585Z,19.25
2022-08-16T15:54:53.422Z,32.72
2022-08-16T15:57:27.199Z,26.35
2022-08-16T15:59:55.671Z,18.40
2022-08-16T16:02:30.635Z,17.73
2022-08-16T16:05:07.401Z,20.48
2022-08-16T16:07:56.521Z,22.55
2022-08-16T16:10:29.843Z,23.63
2022-08-16T16:13:00.381Z,19.08
2022-08-16T16:15:31.502Z,18.52
2022-08-16T16:17:58.850Z,16.40
2022-08-16T16:20:28.911Z,14.93
2022-08-16T16:23:10.072Z,14.25
2022-08-16T16:25:39.695Z,10.57
2022-08-16T16:28:46.075Z,11.00
2022-08-16T16:31:04.779Z,8.77
2022-08-16T16:33:34.097Z,10.20
2022-08-16T16:36:05.558Z,11.52
2022-08-16T16:38:34.798Z,20.10
2022-08-16T16:41:08.931Z,13.70
2022-08-16T16:43:40.583Z,18.42
2022-08-16T16:46:41.326Z,16.63
2022-08-16T16:48:58.006Z,13.40
2022-08-16T16:51:28.019Z,17.55
2022-08-16T16:53:57.050Z,19.42
2022-08-16T16:56:31.255Z,16.08
2022-08-16T16:59:10.106Z,14.40
2022-08-16T17:01:59.508Z,16.33
2022-08-16T17:04:32.325Z,17.27
2022-08-16T17:07:01.648Z,11.57
2022-08-16T17:09:29.934Z,13.40
2022-08-16T17:11:58.246Z,12.30
2022-08-16T17:14:32.668Z,13.65
2022-08-16T17:17:04.245Z,12.07
2022-08-16T17:19:32.080Z,18.75
2022-08-16T17:22:00.465Z,13.70
2022-08-16T17:24:31.231Z,10.45
2022-08-16T17:27:08.236Z,12.98
2022-08-16T17:29:42.733Z,11.50
2022-08-16T17:32:33.791Z,15.82
2022-08-16T17:35:12.242Z,13.98
2022-08-16T17:37:54.298Z,11.75
2022-08-16T17:40:40.825Z,12.93
2022-08-16T17:43:14.983Z,9.57
2022-08-16T17:45:43.436Z,10.85
2022-08-16T17:48:12.012Z,10.30
2022-08-16T17:50:40.877Z,14.05
2022-08-16T17:53:09.274Z,18.75
2022-08-16T17:55:39.952Z,13.45
2022-08-16T17:58:22.169Z,16.73
2022-08-16T18:00:55.842Z,12.68
2022-08-16T18:04:02.185Z,13.07
2022-08-16T18:06:19.008Z,15.63
2022-08-16T18:08:48.612Z,13.48
2022-08-16T18:11:26.142Z,14.52
2022-08-16T18:13:54.862Z,15.05
2022-08-16T18:16:22.162Z,12.50
2022-08-16T18:18:49.476Z,10.85
2022-08-16T18:21:35.487Z,14.60
2022-08-16T18:24:02.985Z,12.52
2022-08-16T18:26:30.364Z,14.52
2022-08-16T18:28:57.716Z,13.25
2022-08-16T18:31:25.188Z,13.57
2022-08-16T18:33:55.618Z,12.52
2022-08-16T18:36:24.317Z,11.68
2022-08-16T18:38:53.056Z,13.20
2022-08-16T18:41:21.932Z,13.00
2022-08-16T18:44:23.119Z,12.40
2022-08-16T18:46:36.805Z,13.80
2022-08-16T18:49:04.216Z,14.90
2022-08-16T18:51:31.772Z,10.43
2022-08-16T18:53:59.211Z,15.27
2022-08-16T18:56:55.384Z,14.15
2022-08-16T18:59:13.973Z,17.45
2022-08-16T19:01:41.304Z,13.63
2022-08-16T19:04:50.441Z,16.05
2022-08-16T19:06:55.959Z,13.05
2022-08-16T19:09:23.295Z,15.45
2022-08-16T19:11:50.699Z,16.27
2022-08-16T19:14:19.122Z,13.05
2022-08-16T19:16:47.136Z,17.90
2022-08-16T19:19:15.910Z,12.75
2022-08-16T19:21:43.250Z,16.52
2022-08-16T19:24:17.683Z,15.65
2022-08-16T19:26:45.679Z,13.27
2022-08-16T19:29:13.561Z,14.93
2022-08-16T19:31:40.957Z,17.45
2022-08-16T19:34:08.754Z,17.80
2022-08-16T19:36:39.591Z,19.45
2022-08-16T19:39:14.727Z,18.23
2022-08-16T19:41:45.447Z,18.27
2022-08-16T19:44:13.295Z,15.32
2022-08-16T19:46:45.787Z,15.35
2022-08-16T19:49:15.778Z,14.70
2022-08-16T19:51:47.640Z,15.27
2022-08-16T19:54:15.058Z,15.45
2022-08-16T19:56:42.404Z,16.13
2022-08-16T19:59:19.399Z,17.27
2022-08-16T20:01:51.047Z,19.27
2022-08-16T20:04:18.693Z,18.45
2022-08-16T20:06:47.158Z,16.77
2022-08-16T20:09:14.900Z,17.08
2022-08-16T20:11:46.957Z,17.70
2022-08-16T20:14:19.230Z,16.13
2022-08-16T20:16:52.987Z,14.82
2022-08-16T20:19:20.454Z,14.23
2022-08-16T20:21:48.099Z,13.27
2022-08-16T20:24:33.683Z,14.10
2022-08-16T20:27:04.349Z,15.95
2022-08-16T20:29:31.716Z,13.07
2022-08-16T20:31:59.153Z,12.38
2022-08-16T20:34:26.496Z,12.73
2022-08-16T20:36:53.810Z,13.68
2022-08-16T20:39:23.452Z,12.00
2022-08-16T20:41:50.969Z,11.75
2022-08-16T20:44:18.324Z,11.32
2022-08-16T20:46:50.454Z,10.90
2022-08-16T20:49:17.705Z,10.73
2022-08-16T20:51:49.395Z,9.18
2022-08-16T20:56:47.057Z,8.13
2022-08-16T20:59:14.442Z,10.13
2022-08-16T21:01:46.495Z,9.82
2022-08-16T21:04:18.728Z,12.48
2022-08-16T21:06:53.175Z,11.27
2022-08-16T21:09:27.708Z,11.32
2022-08-16T21:11:57.026Z,8.13
2022-08-16T21:14:24.874Z,8.45
2022-08-16T21:16:52.324Z,11.82
2022-08-16T21:19:20.331Z,9.43
2022-08-16T21:21:48.144Z,9.07
2022-08-16T21:24:16.102Z,10.73
2022-08-16T21:26:47.371Z,8.30
2022-08-16T21:29:24.919Z,12.32
2022-08-16T21:31:53.471Z,8.18
2022-08-16T21:34:20.852Z,8.75
2022-08-16T21:36:49.773Z,9.48
2022-08-16T21:39:17.054Z,10.95
2022-08-16T21:41:45.238Z,9.27
2022-08-16T21:44:12.552Z,9.10
2022-08-16T21:46:39.797Z,7.90
2022-08-16T21:49:07.139Z,8.68
2022-08-16T21:51:36.203Z,9.60
2022-08-16T21:54:04.042Z,10.00
2022-08-16T21:56:31.454Z,9.57
2022-08-16T21:58:58.847Z,9.40
2022-08-16T22:01:26.761Z,9.20
2022-08-16T22:04:35.736Z,10.18
2022-08-16T22:06:42.803Z,9.65
2022-08-16T22:09:15.173Z,9.50
2022-08-16T22:11:43.356Z,9.43
2022-08-16T22:14:10.815Z,9.48
2022-08-16T22:16:41.685Z,8.98
2022-08-16T22:19:09.641Z,9.27
2022-08-16T22:21:37.180Z,9.95
2022-08-16T22:24:05.115Z,11.18
2022-08-16T22:26:40.924Z,9.73
2022-08-16T22:29:13.044Z,9.23
2022-08-16T22:31:41.666Z,9.05
2022-08-16T22:34:09.092Z,9.60
2022-08-16T22:36:38.882Z,8.95
2022-08-16T22:39:10.873Z,10.60
2022-08-16T22:41:39.680Z,9.32
2022-08-16T22:44:07.717Z,8.80
2022-08-16T22:46:36.690Z,10.27
2022-08-16T22:49:06.344Z,10.98
2022-08-16T22:51:34.585Z,9.75
2022-08-16T22:54:37.485Z,9.48
2022-08-16T22:56:49.107Z,9.85
2022-08-16T22:59:16.366Z,10.40
2022-08-16T23:01:43.987Z,9.32
2022-08-16T23:04:11.341Z,10.73
2022-08-16T23:06:38.752Z,10.27
2022-08-16T23:09:06.091Z,9.82
2022-08-16T23:11:33.506Z,9.85
2022-08-16T23:14:00.863Z,9.63
2022-08-16T23:16:33.432Z,9.20
2022-08-16T23:19:12.765Z,10.43
2022-08-16T23:21:44.433Z,10.32
2022-08-16T23:24:13.987Z,9.88
2022-08-16T23:26:45.704Z,9.25
2022-08-16T23:29:22.432Z,9.83
2022-08-16T23:31:58.144Z,9.27
2022-08-16T23:34:27.796Z,9.18
2022-08-16T23:36:56.357Z,9.60
2022-08-16T23:39:24.792Z,9.55
2022-08-16T23:41:52.322Z,9.15
2022-08-16T23:44:56.225Z,9.43
2022-08-16T23:47:07.111Z,9.50
2022-08-16T23:49:56.550Z,10.15
2022-08-16T23:52:53.334Z,8.65
2022-08-16T23:55:09.909Z,9.98
2022-08-16T23:57:37.500Z,8.93
